createdAt,value
2023-05-28T00:00:27.545Z,4.23
2023-05-28T00:02:54.692Z,4.80
2023-05-28T00:05:21.437Z,3.83
2023-05-28T00:07:48.048Z,4.20
2023-05-28T00:10:14.720Z,4.10
2023-05-28T00:12:41.582Z,4.97
2023-05-28T00:15:08.828Z,4.43
2023-05-28T00:17:35.576Z,4.50
2023-05-28T00:20:02.366Z,4.73
2023-05-28T00:22:29.533Z,4.63
2023-05-28T00:24:57.545Z,5.00
2023-05-28T00:27:25.317Z,4.53
2023-05-28T00:29:51.905Z,6.43
2023-05-28T00:32:18.474Z,4.70
2023-05-28T00:34:45.060Z,5.10
2023-05-28T00:37:11.652Z,5.27
2023-05-28T00:39:38.255Z,4.97
2023-05-28T00:42:05.515Z,4.60
2023-05-28T00:44:32.534Z,5.57
2023-05-28T00:47:00.629Z,4.80
2023-05-28T00:49:27.929Z,4.27
2023-05-28T00:51:56.397Z,4.80
2023-05-28T00:54:24.376Z,4.73
2023-05-28T00:56:52.132Z,4.70
2023-05-28T00:59:19.110Z,4.43
2023-05-28T01:01:46.267Z,5.40
2023-05-28T01:04:13.001Z,5.43
2023-05-28T01:06:40.454Z,4.83
2023-05-28T01:09:08.143Z,5.10
2023-05-28T01:11:36.228Z,5.03
2023-05-28T01:14:03.969Z,4.47
2023-05-28T01:16:30.804Z,4.53
2023-05-28T01:18:58.052Z,4.87
2023-05-28T01:21:26.294Z,4.20
2023-05-28T01:23:53.493Z,4.00
2023-05-28T01:26:20.113Z,4.50
2023-05-28T01:28:47.458Z,4.60
2023-05-28T01:31:15.547Z,5.00
2023-05-28T01:33:45.489Z,5.30
2023-05-28T01:36:33.504Z,4.67
2023-05-28T01:39:01.642Z,6.03
2023-05-28T01:41:29.040Z,5.13
2023-05-28T01:43:56.924Z,5.03
2023-05-28T01:46:24.818Z,5.23
2023-05-28T01:48:51.694Z,6.30
2023-05-28T01:51:22.649Z,6.10
2023-05-28T01:53:49.298Z,6.33
2023-05-28T01:56:15.991Z,6.10
2023-05-28T01:58:42.576Z,7.33
2023-05-28T02:01:25.966Z,5.50
2023-05-28T02:03:52.636Z,8.57
2023-05-28T02:06:19.250Z,7.77
2023-05-28T02:08:46.093Z,7.97
2023-05-28T02:11:12.705Z,7.63
2023-05-28T02:13:40.477Z,6.93
2023-05-28T02:16:07.925Z,6.93
2023-05-28T02:18:37.524Z,6.20
2023-05-28T02:21:05.440Z,6.17
2023-05-28T02:23:32.050Z,5.63
2023-05-28T02:25:58.675Z,5.70
2023-05-28T02:28:25.267Z,5.93
2023-05-28T02:30:51.868Z,5.57
2023-05-28T02:33:18.548Z,5.43
2023-05-28T02:35:45.169Z,5.80
2023-05-28T02:38:11.770Z,5.77
2023-05-28T02:40:38.378Z,6.33
2023-05-28T02:43:05.035Z,5.97
2023-05-28T02:45:31.753Z,5.60
2023-05-28T02:47:58.584Z,5.50
2023-05-28T02:50:25.425Z,5.93
2023-05-28T02:52:52.043Z,5.50
2023-05-28T02:55:18.668Z,5.30
2023-05-28T02:57:45.552Z,5.33
2023-05-28T03:00:13.432Z,5.33
2023-05-28T03:02:40.150Z,6.10
2023-05-28T03:05:06.986Z,5.37
2023-05-28T03:07:33.625Z,6.80
2023-05-28T03:10:00.416Z,5.73
2023-05-28T03:12:27.048Z,5.40
2023-05-28T03:14:53.623Z,5.50
2023-05-28T03:17:20.776Z,5.57
2023-05-28T03:19:47.390Z,5.30
2023-05-28T03:22:14.012Z,4.90
2023-05-28T03:24:40.664Z,5.00
2023-05-28T03:27:07.344Z,5.43
2023-05-28T03:29:33.967Z,5.33
2023-05-28T03:32:01.262Z,4.80
2023-05-28T03:34:27.952Z,6.30
2023-05-28T03:36:54.639Z,7.10
2023-05-28T03:39:21.582Z,7.47
2023-05-28T03:41:49.982Z,8.10
2023-05-28T03:44:19.532Z,7.50
2023-05-28T03:46:46.236Z,7.03
2023-05-28T03:49:12.876Z,7.03
2023-05-28T03:51:39.476Z,6.90
2023-05-28T03:54:06.094Z,6.90
2023-05-28T03:56:34.835Z,6.60
2023-05-28T03:59:01.528Z,6.20
2023-05-28T04:01:28.266Z,6.40
2023-05-28T04:03:56.004Z,6.20
2023-05-28T04:06:23.881Z,6.13
2023-05-28T04:08:50.517Z,6.03
2023-05-28T04:11:17.215Z,6.67
2023-05-28T04:13:43.829Z,6.50
2023-05-28T04:16:10.613Z,5.90
2023-05-28T04:18:37.265Z,5.63
2023-05-28T04:21:04.138Z,6.43
2023-05-28T04:23:31.231Z,5.80
2023-05-28T04:25:57.964Z,5.70
2023-05-28T04:28:29.040Z,5.77
2023-05-28T04:30:56.225Z,6.30
2023-05-28T04:33:23.038Z,5.60
2023-05-28T04:35:49.720Z,6.30
2023-05-28T04:38:16.452Z,5.03
2023-05-28T04:40:43.263Z,6.13
2023-05-28T04:43:10.081Z,6.30
2023-05-28T04:45:36.829Z,5.43
2023-05-28T04:48:03.975Z,6.63
2023-05-28T04:50:31.249Z,6.00
2023-05-28T04:52:57.952Z,6.00
2023-05-28T04:55:25.093Z,5.17
2023-05-28T04:57:51.931Z,5.47
2023-05-28T05:00:20.022Z,6.40
2023-05-28T05:02:46.774Z,5.70
2023-05-28T05:05:13.491Z,6.33
2023-05-28T05:07:40.170Z,6.57
2023-05-28T05:10:09.453Z,6.57
2023-05-28T05:12:36.891Z,5.80
2023-05-28T05:15:08.258Z,5.63
2023-05-28T05:17:35.267Z,5.57
2023-05-28T05:20:03.635Z,5.07
2023-05-28T05:22:31.666Z,6.37
2023-05-28T05:24:58.314Z,5.53
2023-05-28T05:27:25.019Z,5.77
2023-05-28T05:29:52.528Z,6.00
2023-05-28T05:32:19.182Z,5.90
2023-05-28T05:34:45.787Z,5.50
2023-05-28T05:37:12.408Z,5.57
2023-05-28T05:39:39.114Z,6.13
2023-05-28T05:42:06.647Z,6.00
2023-05-28T05:44:33.365Z,5.40
2023-05-28T05:47:00.071Z,5.43
2023-05-28T05:49:26.808Z,6.23
2023-05-28T05:51:53.533Z,5.67
2023-05-28T05:54:20.268Z,6.03
2023-05-28T05:56:46.922Z,5.70
2023-05-28T05:59:13.642Z,5.20
2023-05-28T06:01:40.284Z,5.57
2023-05-28T06:04:07.320Z,5.20
2023-05-28T06:06:39.487Z,5.00
2023-05-28T06:09:07.447Z,5.60
2023-05-28T06:11:34.141Z,6.87
2023-05-28T06:14:00.872Z,4.97
2023-05-28T06:16:29.288Z,5.27
2023-05-28T06:18:57.009Z,4.30
2023-05-28T06:21:25.251Z,4.80
2023-05-28T06:23:51.923Z,5.60
2023-05-28T06:26:18.804Z,4.50
2023-05-28T06:28:45.489Z,4.77
2023-05-28T06:31:12.441Z,4.30
2023-05-28T06:33:39.136Z,4.60
2023-05-28T06:36:07.869Z,4.50
2023-05-28T06:38:36.615Z,4.00
2023-05-28T06:41:03.380Z,4.60
2023-05-28T06:43:30.042Z,4.10
2023-05-28T06:45:56.760Z,3.60
2023-05-28T06:48:23.407Z,4.60
2023-05-28T06:50:50.024Z,3.63
2023-05-28T06:53:16.985Z,4.30
2023-05-28T06:55:44.698Z,4.17
2023-05-28T06:58:11.681Z,5.27
2023-05-28T07:00:38.474Z,4.50
2023-05-28T07:03:05.237Z,4.37
2023-05-28T07:05:32.085Z,4.27
2023-05-28T07:08:00.527Z,4.70
2023-05-28T07:10:29.901Z,3.80
2023-05-28T07:12:58.691Z,3.90
2023-05-28T07:15:25.335Z,4.50
2023-05-28T07:17:51.978Z,4.10
2023-05-28T07:20:18.885Z,3.97
2023-05-28T07:22:45.563Z,3.70
2023-05-28T07:25:12.398Z,3.23
2023-05-28T07:27:39.765Z,3.53
2023-05-28T07:30:07.002Z,3.40
2023-05-28T07:32:33.672Z,3.13
2023-05-28T07:35:00.358Z,3.30
2023-05-28T07:37:29.824Z,3.37
2023-05-28T07:39:56.460Z,3.10
2023-05-28T07:42:23.165Z,3.10
2023-05-28T07:44:49.914Z,3.07
2023-05-28T07:47:16.749Z,3.00
2023-05-28T07:49:43.416Z,3.50
2023-05-28T07:52:10.481Z,3.73
2023-05-28T07:54:37.301Z,3.37
2023-05-28T07:57:04.225Z,3.23
2023-05-28T07:59:31.460Z,3.03
2023-05-28T08:01:58.147Z,2.90
2023-05-28T08:04:25.036Z,2.90
2023-05-28T08:06:51.729Z,2.30
2023-05-28T08:09:18.679Z,3.40
2023-05-28T08:11:45.647Z,4.23
2023-05-28T08:14:12.303Z,2.90
2023-05-28T08:16:39.182Z,2.90
2023-05-28T08:19:05.972Z,3.00
2023-05-28T08:21:32.647Z,3.00
2023-05-28T08:23:59.274Z,3.00
2023-05-28T08:26:26.455Z,3.10
2023-05-28T08:28:53.182Z,2.40
2023-05-28T08:31:19.835Z,3.40
2023-05-28T08:33:46.442Z,2.73
2023-05-28T08:36:13.099Z,2.77
2023-05-28T08:38:39.715Z,2.80
2023-05-28T08:41:06.669Z,2.73
2023-05-28T08:43:33.379Z,3.50
2023-05-28T08:46:00.345Z,3.00
2023-05-28T08:48:28.144Z,3.43
2023-05-28T08:50:55.625Z,2.90
2023-05-28T08:53:24.810Z,2.97
2023-05-28T08:55:53.316Z,3.40
2023-05-28T08:58:20.615Z,2.90
2023-05-28T09:00:49.041Z,4.80
2023-05-28T09:03:16.112Z,3.53
2023-05-28T09:05:42.828Z,3.83
2023-05-28T09:08:11.675Z,3.10
2023-05-28T09:10:39.849Z,3.10
2023-05-28T09:13:07.190Z,3.37
2023-05-28T09:15:38.817Z,3.20
2023-05-28T09:18:07.050Z,3.10
2023-05-28T09:20:34.041Z,2.80
2023-05-28T09:23:07.353Z,2.93
2023-05-28T09:25:37.833Z,3.13
2023-05-28T09:28:04.712Z,2.87
2023-05-28T09:30:38.492Z,3.00
2023-05-28T09:33:08.137Z,3.43
2023-05-28T09:35:36.096Z,2.77
2023-05-28T09:38:10.082Z,3.60
2023-05-28T09:40:43.512Z,2.83
2023-05-28T09:43:11.706Z,3.60
2023-05-28T09:45:38.813Z,2.90
2023-05-28T09:48:05.604Z,3.20
2023-05-28T09:50:32.323Z,2.80
2023-05-28T09:53:00.673Z,2.87
2023-05-28T09:55:29.340Z,3.83
2023-05-28T09:58:03.926Z,2.63
2023-05-28T10:00:39.154Z,3.40
2023-05-28T10:03:14.613Z,3.27
2023-05-28T10:05:44.928Z,3.07
2023-05-28T10:08:17.189Z,2.90
2023-05-28T10:10:48.662Z,3.00
2023-05-28T10:13:15.599Z,8.60
2023-05-28T10:15:43.199Z,16.07
2023-05-28T10:18:10.101Z,33.70
2023-05-28T10:20:37.057Z,13.17
2023-05-28T10:23:04.962Z,14.23
2023-05-28T10:25:33.553Z,10.27
2023-05-28T10:28:04.166Z,26.13
2023-05-28T10:30:34.847Z,16.90
2023-05-28T10:33:06.038Z,6.77
2023-05-28T10:35:35.128Z,12.13
2023-05-28T10:38:08.913Z,3.87
2023-05-28T10:40:36.285Z,9.97
2023-05-28T10:43:03.597Z,8.40
2023-05-28T10:45:37.682Z,10.13
2023-05-28T10:48:04.994Z,3.30
2023-05-28T10:50:31.780Z,9.10
2023-05-28T10:53:06.298Z,3.83
2023-05-28T10:55:55.844Z,3.53
2023-05-28T10:58:29.455Z,4.17
2023-05-28T11:01:22.669Z,3.43
2023-05-28T11:03:55.983Z,2.80
2023-05-28T11:06:26.847Z,4.20
2023-05-28T11:08:53.738Z,2.43
2023-05-28T11:11:20.534Z,3.70
2023-05-28T11:13:49.048Z,3.83
2023-05-28T11:16:17.847Z,3.37
2023-05-28T11:19:09.754Z,3.67
2023-05-28T11:21:52.613Z,4.83
2023-05-28T11:24:19.255Z,2.90
2023-05-28T11:26:45.971Z,3.33
2023-05-28T11:29:14.419Z,3.90
2023-05-28T11:31:43.937Z,3.37
2023-05-28T11:34:11.009Z,3.77
2023-05-28T11:36:44.663Z,3.60
2023-05-28T11:39:11.933Z,3.70
2023-05-28T11:41:38.831Z,3.10
2023-05-28T11:44:25.594Z,3.20
2023-05-28T11:46:56.676Z,3.07
2023-05-28T11:49:24.102Z,3.43
2023-05-28T11:51:54.545Z,3.10
2023-05-28T11:54:22.277Z,4.60
2023-05-28T11:56:50.370Z,4.07
2023-05-28T11:59:18.290Z,5.90
2023-05-28T12:01:45.827Z,3.10
2023-05-28T12:04:12.910Z,4.97
2023-05-28T12:06:56.500Z,5.63
2023-05-28T12:09:23.336Z,3.27
2023-05-28T12:12:27.744Z,5.53
2023-05-28T12:15:00.460Z,5.37
2023-05-28T12:17:27.200Z,3.40
2023-05-28T12:19:53.839Z,2.93
2023-05-28T12:22:20.606Z,3.20
2023-05-28T12:24:54.633Z,3.10
2023-05-28T12:27:21.808Z,4.83
2023-05-28T12:29:48.509Z,3.63
2023-05-28T12:32:15.462Z,3.33
2023-05-28T12:34:42.162Z,3.00
2023-05-28T12:37:09.923Z,2.90
2023-05-28T12:39:38.074Z,3.20
2023-05-28T12:42:05.025Z,4.50
2023-05-28T12:44:31.603Z,3.50
2023-05-28T12:46:58.288Z,3.40
2023-05-28T12:49:25.013Z,3.67
2023-05-28T12:51:51.701Z,4.10
2023-05-28T12:54:18.459Z,2.73
2023-05-28T12:56:45.319Z,3.60
2023-05-28T12:59:24.901Z,3.40
2023-05-28T13:01:51.820Z,3.07
2023-05-28T13:04:19.242Z,2.93
2023-05-28T13:06:46.225Z,3.00
2023-05-28T13:09:21.976Z,2.97
2023-05-28T13:11:48.783Z,3.03
2023-05-28T13:14:15.685Z,2.93
2023-05-28T13:16:42.400Z,3.37
2023-05-28T13:19:09.080Z,3.50
2023-05-28T13:21:38.714Z,3.63
2023-05-28T13:24:06.968Z,2.90
2023-05-28T13:26:35.856Z,3.80
2023-05-28T13:29:05.610Z,3.00
2023-05-28T13:31:33.405Z,2.90
2023-05-28T13:34:01.413Z,3.00
2023-05-28T13:36:29.752Z,2.90
2023-05-28T13:38:56.966Z,2.77
2023-05-28T13:41:27.110Z,2.93
2023-05-28T13:43:56.742Z,2.97
2023-05-28T13:46:25.932Z,2.83
2023-05-28T13:48:53.112Z,2.77
2023-05-28T13:51:20.077Z,3.23
2023-05-28T13:53:50.420Z,3.33
2023-05-28T13:56:17.051Z,3.13
2023-05-28T13:58:43.721Z,3.40
2023-05-28T14:01:11.610Z,2.93
2023-05-28T14:03:38.611Z,3.37
2023-05-28T14:06:05.588Z,2.97
2023-05-28T14:08:32.303Z,2.80
2023-05-28T14:10:58.932Z,3.30
2023-05-28T14:13:31.542Z,3.37
2023-05-28T14:15:59.638Z,3.10
2023-05-28T14:18:26.716Z,3.13
2023-05-28T14:20:53.824Z,3.10
2023-05-28T14:23:20.566Z,3.13
2023-05-28T14:25:49.484Z,3.43
2023-05-28T14:28:16.179Z,3.50
2023-05-28T14:30:43.098Z,3.20
2023-05-28T14:33:12.632Z,3.40
2023-05-28T14:35:39.418Z,3.40
2023-05-28T14:38:06.287Z,3.43
2023-05-28T14:40:33.116Z,3.10
2023-05-28T14:42:59.809Z,3.17
2023-05-28T14:45:26.436Z,3.57
2023-05-28T14:47:56.012Z,2.87
2023-05-28T14:50:22.816Z,3.70
2023-05-28T14:52:49.536Z,3.50
2023-05-28T14:55:19.432Z,2.57
2023-05-28T14:57:47.775Z,3.20
2023-05-28T15:00:14.627Z,3.60
2023-05-28T15:02:42.507Z,3.33
2023-05-28T15:05:09.700Z,3.50
2023-05-28T15:07:36.538Z,2.90
2023-05-28T15:10:03.275Z,2.90
2023-05-28T15:12:31.404Z,3.30
2023-05-28T15:14:58.231Z,3.10
2023-05-28T15:17:24.930Z,3.70
2023-05-28T15:19:51.875Z,3.83
2023-05-28T15:22:21.105Z,4.37
2023-05-28T15:24:49.573Z,3.73
2023-05-28T15:27:16.295Z,3.20
2023-05-28T15:29:45.325Z,3.30
2023-05-28T15:32:12.653Z,3.27
2023-05-28T15:34:40.176Z,3.30
2023-05-28T15:37:09.207Z,4.00
2023-05-28T15:39:36.036Z,3.00
2023-05-28T15:42:05.214Z,3.30
2023-05-28T15:44:32.836Z,3.93
2023-05-28T15:46:59.807Z,3.87
2023-05-28T15:49:26.581Z,4.10
2023-05-28T15:51:53.625Z,2.83
2023-05-28T15:54:20.550Z,3.33
2023-05-28T15:56:49.940Z,3.80
2023-05-28T15:59:16.907Z,3.43
2023-05-28T16:01:45.988Z,3.03
2023-05-28T16:04:12.956Z,2.73
2023-05-28T16:06:39.700Z,3.80
2023-05-28T16:09:06.512Z,5.63
2023-05-28T16:11:36.748Z,3.30
2023-05-28T16:14:05.954Z,3.80
2023-05-28T16:16:35.657Z,3.70
2023-05-28T16:19:02.632Z,4.00
2023-05-28T16:21:29.557Z,3.77
2023-05-28T16:23:56.248Z,3.23
2023-05-28T16:26:24.794Z,3.90
2023-05-28T16:28:53.600Z,3.80
2023-05-28T16:31:20.524Z,3.30
2023-05-28T16:33:47.242Z,3.50
2023-05-28T16:36:14.328Z,3.40
2023-05-28T16:38:41.214Z,3.70
2023-05-28T16:41:08.120Z,3.37
2023-05-28T16:43:35.007Z,3.90
2023-05-28T16:46:01.838Z,3.27
2023-05-28T16:48:28.867Z,3.43
2023-05-28T16:50:56.980Z,4.07
2023-05-28T16:53:25.710Z,2.90
2023-05-28T16:55:55.405Z,3.70
2023-05-28T16:58:22.391Z,3.00
2023-05-28T17:00:49.087Z,2.90
2023-05-28T17:03:15.923Z,3.20
2023-05-28T17:05:42.726Z,3.67
2023-05-28T17:08:09.350Z,3.30
2023-05-28T17:10:35.973Z,3.20
2023-05-28T17:13:02.716Z,3.83
2023-05-28T17:15:29.357Z,3.87
2023-05-28T17:17:56.276Z,3.60
2023-05-28T17:20:23.115Z,3.33
2023-05-28T17:22:50.579Z,3.30
2023-05-28T17:25:17.301Z,3.80
2023-05-28T17:27:43.929Z,3.70
2023-05-28T17:30:11.542Z,3.20
2023-05-28T17:32:38.173Z,3.70
2023-05-28T17:35:05.130Z,3.20
2023-05-28T17:37:31.811Z,2.90
2023-05-28T17:39:58.397Z,3.67
2023-05-28T17:42:26.879Z,4.07
2023-05-28T17:44:54.812Z,3.30
2023-05-28T17:47:21.408Z,3.60
2023-05-28T17:49:51.966Z,3.20
2023-05-28T17:52:19.159Z,3.87
2023-05-28T17:54:45.801Z,3.20
2023-05-28T17:57:12.861Z,3.10
2023-05-28T17:59:39.469Z,2.90
2023-05-28T18:02:06.805Z,3.77
2023-05-28T18:04:33.461Z,3.13
2023-05-28T18:07:00.098Z,3.83
2023-05-28T18:09:26.794Z,3.63
2023-05-28T18:11:53.429Z,3.17
2023-05-28T18:14:20.174Z,4.00
2023-05-28T18:16:47.013Z,3.67
2023-05-28T18:19:13.612Z,3.30
2023-05-28T18:21:40.252Z,3.37
2023-05-28T18:24:11.389Z,4.40
2023-05-28T18:26:38.758Z,4.10
2023-05-28T18:29:05.453Z,3.77
2023-05-28T18:31:32.515Z,3.00
2023-05-28T18:33:59.283Z,3.83
2023-05-28T18:36:25.940Z,4.07
2023-05-28T18:38:52.670Z,3.37
2023-05-28T18:41:19.471Z,4.07
2023-05-28T18:43:46.149Z,4.00
2023-05-28T18:46:14.731Z,3.70
2023-05-28T18:48:42.877Z,3.73
2023-05-28T18:51:09.503Z,4.93
2023-05-28T18:53:36.816Z,3.50
2023-05-28T18:56:03.440Z,4.07
2023-05-28T18:58:30.213Z,4.07
2023-05-28T19:00:57.081Z,3.77
2023-05-28T19:03:23.976Z,3.67
2023-05-28T19:05:50.695Z,3.40
2023-05-28T19:08:17.559Z,3.67
2023-05-28T19:11:05.943Z,4.03
2023-05-28T19:13:39.366Z,3.63
2023-05-28T19:16:14.456Z,4.00
2023-05-28T19:18:44.594Z,4.20
2023-05-28T19:21:12.685Z,3.50
2023-05-28T19:23:40.038Z,3.60
2023-05-28T19:26:07.688Z,3.33
2023-05-28T19:28:52.304Z,3.80
2023-05-28T19:31:22.600Z,3.57
2023-05-28T19:33:49.293Z,3.33
2023-05-28T19:36:23.067Z,3.57
2023-05-28T19:38:49.742Z,3.63
2023-05-28T19:44:03.941Z,3.20
2023-05-28T19:46:39.665Z,3.77
2023-05-28T19:49:06.535Z,3.43
2023-05-28T19:51:33.219Z,2.87
2023-05-28T19:53:59.857Z,3.33
2023-05-28T19:56:26.694Z,3.10
2023-05-28T19:58:53.362Z,3.33
2023-05-28T20:01:20.089Z,3.00
2023-05-28T20:03:49.711Z,2.90
2023-05-28T20:06:17.512Z,2.70
2023-05-28T20:08:44.245Z,2.20
2023-05-28T20:11:10.953Z,3.23
2023-05-28T20:13:38.041Z,2.90
2023-05-28T20:16:04.862Z,2.60
2023-05-28T20:18:32.467Z,2.40
2023-05-28T20:21:00.459Z,2.60
2023-05-28T20:23:27.350Z,2.47
2023-05-28T20:25:57.428Z,2.73
2023-05-28T20:28:24.077Z,2.40
2023-05-28T20:30:50.910Z,2.43
2023-05-28T20:33:17.629Z,2.60
2023-05-28T20:35:44.417Z,2.97
2023-05-28T20:38:12.099Z,2.70
2023-05-28T20:40:39.448Z,2.50
2023-05-28T20:43:06.438Z,2.23
2023-05-28T20:45:37.005Z,2.60
2023-05-28T20:48:04.772Z,2.40
2023-05-28T20:50:31.566Z,2.60
2023-05-28T20:53:03.452Z,2.63
2023-05-28T20:55:30.343Z,2.50
2023-05-28T20:58:01.404Z,2.73
2023-05-28T21:00:29.038Z,2.17
2023-05-28T21:03:00.592Z,2.67
2023-05-28T21:05:33.158Z,2.93
2023-05-28T21:07:59.856Z,2.60
2023-05-28T21:10:26.923Z,2.77
2023-05-28T21:12:54.259Z,2.53
2023-05-28T21:15:24.275Z,2.57
2023-05-28T21:17:51.028Z,2.10
2023-05-28T21:20:17.664Z,2.50
2023-05-28T21:22:44.315Z,2.10
2023-05-28T21:25:10.987Z,2.27
2023-05-28T21:27:40.826Z,2.27
2023-05-28T21:30:11.360Z,2.33
2023-05-28T21:32:38.209Z,2.70
2023-05-28T21:35:08.120Z,2.17
2023-05-28T21:37:35.078Z,2.30
2023-05-28T21:40:01.794Z,2.63
2023-05-28T21:42:54.549Z,2.20
2023-05-28T21:48:42.680Z,2.00
2023-05-28T21:51:09.664Z,2.10
2023-05-28T21:53:36.305Z,2.40
2023-05-28T21:56:02.932Z,2.33
2023-05-28T21:58:29.539Z,2.50
2023-05-28T22:00:56.234Z,2.67
2023-05-28T22:03:22.929Z,2.60
2023-05-28T22:05:49.718Z,2.30
2023-05-28T22:08:16.496Z,2.60
2023-05-28T22:10:45.073Z,2.80
2023-05-28T22:13:12.413Z,2.33
2023-05-28T22:15:42.101Z,2.40
2023-05-28T22:18:09.178Z,2.23
2023-05-28T22:20:42.948Z,2.70
2023-05-28T22:23:12.122Z,2.60
2023-05-28T22:25:38.807Z,2.57
2023-05-28T22:28:05.927Z,2.67
2023-05-28T22:30:32.834Z,3.00
2023-05-28T22:33:00.969Z,2.40
2023-05-28T22:35:28.626Z,2.30
2023-05-28T22:37:56.269Z,2.70
2023-05-28T22:40:23.082Z,2.30
2023-05-28T22:42:49.716Z,2.70
2023-05-28T22:45:19.948Z,2.50
2023-05-28T22:47:47.937Z,2.10
2023-05-28T22:50:15.475Z,2.40
2023-05-28T22:52:42.870Z,2.37
2023-05-28T22:55:11.012Z,3.30
2023-05-28T22:57:37.772Z,2.80
2023-05-28T23:00:11.701Z,2.37
2023-05-28T23:02:40.817Z,2.87
2023-05-28T23:05:07.997Z,2.63
2023-05-28T23:07:35.030Z,2.37
2023-05-28T23:10:01.764Z,2.77
2023-05-28T23:12:28.377Z,3.07
2023-05-28T23:14:55.021Z,2.77
2023-05-28T23:17:21.726Z,2.90
2023-05-28T23:19:48.410Z,2.23
2023-05-28T23:22:15.034Z,2.80
2023-05-28T23:24:41.882Z,2.80
2023-05-28T23:27:08.761Z,2.30
2023-05-28T23:29:36.526Z,1.97
2023-05-28T23:32:03.502Z,2.60
2023-05-28T23:34:30.259Z,2.67
2023-05-28T23:36:56.903Z,2.60
2023-05-28T23:39:25.641Z,2.60
2023-05-28T23:41:53.489Z,2.73
2023-05-28T23:44:20.385Z,2.23
2023-05-28T23:46:47.998Z,2.60
2023-05-28T23:49:17.121Z,3.10
2023-05-28T23:51:44.230Z,2.37
2023-05-28T23:54:10.919Z,2.67
2023-05-28T23:56:37.752Z,2.60
2023-05-28T23:59:04.425Z,2.10
